createdAt,value
2018-12-01T00:00:34.733Z,18.77
2018-12-01T00:03:05.059Z,19.67
2018-12-01T00:05:35.176Z,18.43
2018-12-01T00:08:05.714Z,22.60
2018-12-01T00:10:35.835Z,22.97
2018-12-01T00:13:05.959Z,21.83
2018-12-01T00:15:36.184Z,21.03
2018-12-01T00:18:06.719Z,20.63
2018-12-01T00:20:38.089Z,20.37
2018-12-01T00:23:08.188Z,19.17
2018-12-01T00:25:38.309Z,17.07
2018-12-01T00:28:08.432Z,19.63
2018-12-01T00:30:38.657Z,18.93
2018-12-01T00:33:08.782Z,18.70
2018-12-01T00:35:39.283Z,20.63
2018-12-01T00:38:09.384Z,19.47
2018-12-01T00:40:39.659Z,19.90
2018-12-01T00:43:09.751Z,16.57
2018-12-01T00:45:39.912Z,17.93
2018-12-01T00:48:10.239Z,16.70
2018-12-01T00:50:40.251Z,15.23
2018-12-01T00:53:10.376Z,18.50
2018-12-01T00:55:40.482Z,20.10
2018-12-01T00:58:10.619Z,18.00
2018-12-01T01:00:41.636Z,22.63
2018-12-01T01:03:11.785Z,17.10
2018-12-01T01:05:42.009Z,21.90
2018-12-01T01:08:12.132Z,21.70
2018-12-01T01:10:42.254Z,22.67
2018-12-01T01:13:12.375Z,20.07
2018-12-01T01:15:42.414Z,21.27
2018-12-01T01:18:12.503Z,18.60
2018-12-01T01:20:42.644Z,21.63
2018-12-01T01:23:12.668Z,20.07
2018-12-01T01:25:42.784Z,20.67
2018-12-01T01:28:12.831Z,21.50
2018-12-01T01:30:42.943Z,16.70
2018-12-01T01:33:24.306Z,21.50
2018-12-01T01:35:54.422Z,19.17
2018-12-01T01:38:24.450Z,17.63
2018-12-01T01:40:59.887Z,19.40
2018-12-01T01:43:30.014Z,21.70
2018-12-01T01:46:00.137Z,26.47
2018-12-01T01:48:30.260Z,20.07
2018-12-01T01:51:00.385Z,20.73
2018-12-01T01:53:30.495Z,18.70
2018-12-01T01:56:00.605Z,22.23
2018-12-01T01:58:31.364Z,21.73
2018-12-01T02:01:01.383Z,23.30
2018-12-01T02:03:31.459Z,22.73
2018-12-01T02:06:01.454Z,21.43
2018-12-01T02:08:32.570Z,20.80
2018-12-01T02:11:02.580Z,21.13
2018-12-01T02:13:32.609Z,20.27
2018-12-01T02:16:02.731Z,20.63
2018-12-01T02:18:32.856Z,17.83
2018-12-01T02:21:02.978Z,15.67
2018-12-01T02:23:33.202Z,17.10
2018-12-01T02:26:03.324Z,17.63
2018-12-01T02:28:33.448Z,20.43
2018-12-01T02:31:03.563Z,14.47
2018-12-01T02:33:33.692Z,18.03
2018-12-01T02:36:03.817Z,18.87
2018-12-01T02:38:33.919Z,19.00
2018-12-01T02:41:03.988Z,16.00
2018-12-01T02:43:34.032Z,18.50
2018-12-01T02:46:15.359Z,15.67
2018-12-01T02:48:45.420Z,16.83
2018-12-01T02:51:15.791Z,16.93
2018-12-01T02:53:45.812Z,17.93
2018-12-01T02:56:15.949Z,16.50
2018-12-01T02:58:46.051Z,16.53
2018-12-01T03:01:16.204Z,19.17
2018-12-01T03:03:46.299Z,17.80
2018-12-01T03:06:16.439Z,20.60
2018-12-01T03:08:47.248Z,21.20
2018-12-01T03:11:17.400Z,20.00
2018-12-01T03:13:47.418Z,21.37
2018-12-01T03:16:17.644Z,19.23
2018-12-01T03:18:47.767Z,19.47
2018-12-01T03:21:17.992Z,21.97
2018-12-01T03:23:48.091Z,18.87
2018-12-01T03:26:18.236Z,20.17
2018-12-01T03:28:48.359Z,22.63
2018-12-01T03:31:18.482Z,24.37
2018-12-01T03:33:48.710Z,21.50
2018-12-01T03:36:18.820Z,23.83
2018-12-01T03:38:49.343Z,24.60
2018-12-01T03:41:19.483Z,27.27
2018-12-01T03:43:49.605Z,29.90
2018-12-01T03:46:19.727Z,26.50
2018-12-01T03:48:49.849Z,25.50
2018-12-01T03:51:19.973Z,29.27
2018-12-01T03:53:50.094Z,29.17
2018-12-01T03:56:20.255Z,26.43
2018-12-01T03:58:50.441Z,26.83
2018-12-01T04:01:20.524Z,23.43
2018-12-01T04:03:50.792Z,23.23
2018-12-01T04:06:21.064Z,20.30
2018-12-01T04:08:51.238Z,20.63
2018-12-01T04:11:21.362Z,16.90
2018-12-01T04:13:51.486Z,16.00
2018-12-01T04:16:21.542Z,14.23
2018-12-01T04:18:51.595Z,17.87
2018-12-01T04:21:21.683Z,20.63
2018-12-01T04:23:51.871Z,20.00
2018-12-01T04:26:21.993Z,15.57
2018-12-01T04:28:52.059Z,12.83
2018-12-01T04:31:22.341Z,16.27
2018-12-01T04:33:52.506Z,14.40
2018-12-01T04:36:22.585Z,14.10
2018-12-01T04:38:53.015Z,14.90
2018-12-01T04:41:23.956Z,15.10
2018-12-01T04:43:54.181Z,17.17
2018-12-01T04:46:24.259Z,16.40
2018-12-01T04:48:54.426Z,16.67
2018-12-01T04:51:24.547Z,15.37
2018-12-01T04:53:54.670Z,19.20
2018-12-01T04:56:24.895Z,14.37
2018-12-01T04:58:55.018Z,18.87
2018-12-01T05:01:25.140Z,15.60
2018-12-01T05:03:55.367Z,15.40
2018-12-01T05:06:25.400Z,18.03
2018-12-01T05:08:55.612Z,15.87
2018-12-01T05:11:25.719Z,17.50
2018-12-01T05:13:56.673Z,16.47
2018-12-01T05:16:26.796Z,18.13
2018-12-01T05:18:56.918Z,18.70
2018-12-01T05:21:26.943Z,18.87
2018-12-01T05:23:56.970Z,14.83
2018-12-01T05:26:27.082Z,18.83
2018-12-01T05:28:57.208Z,17.77
2018-12-01T05:31:27.326Z,20.60
2018-12-01T05:33:57.450Z,21.90
2018-12-01T05:36:27.471Z,19.00
2018-12-01T05:38:57.604Z,19.73
2018-12-01T05:41:27.683Z,21.43
2018-12-01T05:43:57.939Z,21.30
2018-12-01T05:46:27.957Z,22.90
2018-12-01T05:48:58.082Z,21.70
2018-12-01T05:51:28.306Z,22.80
2018-12-01T05:53:59.348Z,24.60
2018-12-01T05:56:29.472Z,22.17
2018-12-01T05:58:59.595Z,23.43
2018-12-01T06:01:29.708Z,23.60
2018-12-01T06:03:59.838Z,21.17
2018-12-01T06:06:30.472Z,20.60
2018-12-01T06:09:00.595Z,22.30
2018-12-01T06:11:31.433Z,21.87
2018-12-01T06:14:01.448Z,20.53
2018-12-01T06:16:31.577Z,25.03
2018-12-01T06:19:01.802Z,21.50
2018-12-01T06:21:31.820Z,22.43
2018-12-01T06:24:01.945Z,23.57
2018-12-01T06:26:31.956Z,22.53
2018-12-01T06:29:02.019Z,25.60
2018-12-01T06:31:32.107Z,23.07
2018-12-01T06:34:02.187Z,22.23
2018-12-01T06:36:32.227Z,24.10
2018-12-01T06:39:02.473Z,22.03
2018-12-01T06:41:32.493Z,20.67
2018-12-01T06:44:02.731Z,19.30
2018-12-01T06:46:32.738Z,21.20
2018-12-01T06:49:02.791Z,23.20
2018-12-01T06:51:32.819Z,18.10
2018-12-01T06:54:02.862Z,21.93
2018-12-01T06:56:32.904Z,22.87
2018-12-01T06:59:02.979Z,19.33
2018-12-01T07:01:33.004Z,20.43
2018-12-01T07:04:03.028Z,16.57
2018-12-01T07:06:33.068Z,17.43
2018-12-01T07:09:03.108Z,17.83
2018-12-01T07:11:33.147Z,20.30
2018-12-01T07:14:03.207Z,19.23
2018-12-01T07:16:33.276Z,18.87
2018-12-01T07:19:12.894Z,17.97
2018-12-01T07:21:43.039Z,16.63
2018-12-01T07:24:13.179Z,16.77
2018-12-01T07:26:43.215Z,19.03
2018-12-01T07:29:13.265Z,18.87
2018-12-01T07:31:43.219Z,18.17
2018-12-01T07:34:13.279Z,18.00
2018-12-01T07:36:43.311Z,17.70
2018-12-01T07:39:13.402Z,20.33
2018-12-01T07:41:43.475Z,18.50
2018-12-01T07:44:13.500Z,16.97
2018-12-01T07:46:43.540Z,18.47
2018-12-01T07:49:14.602Z,17.17
2018-12-01T07:51:44.591Z,20.17
2018-12-01T07:54:14.655Z,15.30
2018-12-01T07:56:44.679Z,21.13
2018-12-01T07:59:14.719Z,18.53
2018-12-01T08:01:44.723Z,20.23
2018-12-01T08:04:14.751Z,17.10
2018-12-01T08:06:44.783Z,16.13
2018-12-01T08:09:14.873Z,16.67
2018-12-01T08:11:44.935Z,16.27
2018-12-01T08:14:14.983Z,17.40
2018-12-01T08:16:45.096Z,15.53
2018-12-01T08:19:15.139Z,14.17
2018-12-01T08:21:45.159Z,16.27
2018-12-01T08:24:15.219Z,14.97
2018-12-01T08:26:45.256Z,13.47
2018-12-01T08:29:15.320Z,14.30
2018-12-01T08:31:45.375Z,16.73
2018-12-01T08:34:15.415Z,15.07
2018-12-01T08:36:45.479Z,16.60
2018-12-01T08:39:15.523Z,13.83
2018-12-01T08:41:45.586Z,16.03
2018-12-01T08:44:15.605Z,13.23
2018-12-01T08:46:45.673Z,16.50
2018-12-01T08:49:15.728Z,13.47
2018-12-01T08:51:45.772Z,15.40
2018-12-01T08:54:15.803Z,14.63
2018-12-01T08:56:47.277Z,17.00
2018-12-01T08:59:17.343Z,16.13
2018-12-01T09:01:47.439Z,20.60
2018-12-01T09:04:17.483Z,17.40
2018-12-01T09:06:47.539Z,18.47
2018-12-01T09:09:17.599Z,18.97
2018-12-01T09:11:47.648Z,20.67
2018-12-01T09:14:17.928Z,18.07
2018-12-01T09:16:47.996Z,19.70
2018-12-01T09:19:18.099Z,19.10
2018-12-01T09:21:48.313Z,14.70
2018-12-01T09:24:18.337Z,18.97
2018-12-01T09:26:48.407Z,17.60
2018-12-01T09:29:18.425Z,16.13
2018-12-01T09:31:48.456Z,15.00
2018-12-01T09:34:18.495Z,14.37
2018-12-01T09:36:48.621Z,16.33
2018-12-01T09:39:18.647Z,14.70
2018-12-01T09:41:48.739Z,16.27
2018-12-01T09:44:18.792Z,14.30
2018-12-01T09:46:48.811Z,15.37
2018-12-01T09:49:18.860Z,15.67
2018-12-01T09:51:48.899Z,14.77
2018-12-01T09:54:18.959Z,14.13
2018-12-01T09:56:49.037Z,13.73
2018-12-01T09:59:19.064Z,13.73
2018-12-01T10:01:49.067Z,15.73
2018-12-01T10:04:19.127Z,12.60
2018-12-01T10:06:49.208Z,13.70
2018-12-01T10:09:19.223Z,15.70
2018-12-01T10:11:50.564Z,12.27
2018-12-01T10:14:19.355Z,15.47
2018-12-01T10:16:49.368Z,13.40
2018-12-01T10:19:19.410Z,12.07
2018-12-01T10:21:49.458Z,11.30
2018-12-01T10:24:19.555Z,9.10
2018-12-01T10:26:49.612Z,11.97
2018-12-01T10:29:19.657Z,13.43
2018-12-01T10:31:49.687Z,14.57
2018-12-01T10:34:19.763Z,15.23
2018-12-01T10:36:49.696Z,12.70
2018-12-01T10:39:19.759Z,14.70
2018-12-01T10:41:49.819Z,15.43
2018-12-01T10:44:19.823Z,13.97
2018-12-01T10:46:49.915Z,14.07
2018-12-01T10:49:19.967Z,14.13
2018-12-01T10:51:50.015Z,14.27
2018-12-01T10:54:20.028Z,12.67
2018-12-01T10:56:50.191Z,14.67
2018-12-01T10:59:20.207Z,13.80
2018-12-01T11:01:55.408Z,15.00
2018-12-01T11:04:30.783Z,18.77
2018-12-01T11:07:00.863Z,13.93
2018-12-01T11:09:30.907Z,14.43
2018-12-01T11:12:00.987Z,13.60
2018-12-01T11:14:31.040Z,14.93
2018-12-01T11:17:01.151Z,13.70
2018-12-01T11:19:31.204Z,14.97
2018-12-01T11:22:01.272Z,14.23
2018-12-01T11:24:31.369Z,14.50
2018-12-01T11:27:01.372Z,13.87
2018-12-01T11:29:31.512Z,15.83
2018-12-01T11:32:01.591Z,15.60
2018-12-01T11:34:31.572Z,16.33
2018-12-01T11:37:01.520Z,15.47
2018-12-01T11:39:31.576Z,16.13
2018-12-01T11:42:01.597Z,11.97
2018-12-01T11:44:31.647Z,15.17
2018-12-01T11:47:01.735Z,16.87
2018-12-01T11:49:31.827Z,15.20
2018-12-01T11:52:01.851Z,15.47
2018-12-01T11:54:31.919Z,14.37
2018-12-01T11:57:01.969Z,14.47
2018-12-01T11:59:31.992Z,14.13
2018-12-01T12:02:02.014Z,15.30
2018-12-01T12:04:32.143Z,18.17
2018-12-01T12:07:02.239Z,16.23
2018-12-01T12:09:32.328Z,18.40
2018-12-01T12:12:02.395Z,16.27
2018-12-01T12:14:32.428Z,15.50
2018-12-01T12:17:02.487Z,13.87
2018-12-01T12:19:32.559Z,14.27
2018-12-01T12:22:02.622Z,15.73
2018-12-01T12:24:32.660Z,16.20
2018-12-01T12:27:02.665Z,14.23
2018-12-01T12:29:32.738Z,17.40
2018-12-01T12:32:02.836Z,16.27
2018-12-01T12:34:32.871Z,17.83
2018-12-01T12:37:02.903Z,16.93
2018-12-01T12:39:38.756Z,18.23
2018-12-01T12:42:14.673Z,17.20
2018-12-01T12:44:50.472Z,16.63
2018-12-01T12:47:26.439Z,15.30
2018-12-01T12:50:02.307Z,16.03
2018-12-01T12:52:38.155Z,15.40
2018-12-01T12:55:15.007Z,15.63
2018-12-01T12:57:50.940Z,15.53
2018-12-01T13:00:24.735Z,13.30
2018-12-01T13:03:03.483Z,16.23
2018-12-01T13:05:41.300Z,12.90
2018-12-01T13:08:18.537Z,13.33
2018-12-01T13:10:48.571Z,14.00
2018-12-01T13:13:18.609Z,13.83
2018-12-01T13:15:48.634Z,12.87
2018-12-01T13:18:18.671Z,15.30
2018-12-01T13:20:48.703Z,12.90
2018-12-01T13:23:22.475Z,16.50
2018-12-01T13:25:52.574Z,16.73
2018-12-01T13:28:23.871Z,19.07
2018-12-01T13:30:55.535Z,15.87
2018-12-01T13:33:25.911Z,15.40
2018-12-01T13:35:56.901Z,16.27
2018-12-01T13:38:27.211Z,15.93
2018-12-01T13:40:57.271Z,13.83
2018-12-01T13:43:27.410Z,13.17
2018-12-01T13:45:58.075Z,16.00
2018-12-01T13:48:28.151Z,17.67
2018-12-01T13:50:58.223Z,15.33
2018-12-01T13:53:28.253Z,17.27
2018-12-01T13:55:58.455Z,19.80
2018-12-01T13:58:28.523Z,16.47
2018-12-01T14:00:58.562Z,16.77
2018-12-01T14:03:28.594Z,16.17
2018-12-01T14:05:58.697Z,15.30
2018-12-01T14:08:28.727Z,18.00
2018-12-01T14:10:58.807Z,20.03
2018-12-01T14:13:28.823Z,16.37
2018-12-01T14:15:58.882Z,14.43
2018-12-01T14:18:29.023Z,18.27
2018-12-01T14:20:59.063Z,17.20
2018-12-01T14:23:29.096Z,17.73
2018-12-01T14:25:59.139Z,18.17
2018-12-01T14:28:29.179Z,18.73
2018-12-01T14:30:59.199Z,16.67
2018-12-01T14:33:29.267Z,13.47
2018-12-01T14:35:59.339Z,15.10
2018-12-01T14:38:29.427Z,15.20
2018-12-01T14:40:59.457Z,16.53
2018-12-01T14:43:29.523Z,14.60
2018-12-01T14:45:59.559Z,15.43
2018-12-01T14:48:29.569Z,15.80
2018-12-01T14:50:59.671Z,15.20
2018-12-01T14:53:29.803Z,19.50
2018-12-01T14:55:59.859Z,16.20
2018-12-01T14:58:29.862Z,17.30
2018-12-01T15:00:59.875Z,14.40
2018-12-01T15:03:29.942Z,15.83
2018-12-01T15:06:00.048Z,16.37
2018-12-01T15:08:30.072Z,17.00
2018-12-01T15:11:00.072Z,17.00
2018-12-01T15:13:30.219Z,19.13
2018-12-01T15:16:00.379Z,16.10
2018-12-01T15:18:30.391Z,15.97
2018-12-01T15:21:00.439Z,16.70
2018-12-01T15:23:30.459Z,17.00
2018-12-01T15:26:00.519Z,17.50
2018-12-01T15:28:30.581Z,15.57
2018-12-01T15:31:00.608Z,16.00
2018-12-01T15:33:30.591Z,17.10
2018-12-01T15:36:00.611Z,15.67
2018-12-01T15:38:30.699Z,17.70
2018-12-01T15:41:00.742Z,16.37
2018-12-01T15:43:30.843Z,15.43
2018-12-01T15:46:00.935Z,13.40
2018-12-01T15:48:30.979Z,17.53
2018-12-01T15:51:01.075Z,16.50
2018-12-01T15:53:31.117Z,15.80
2018-12-01T15:56:01.180Z,16.47
2018-12-01T15:58:31.199Z,17.50
2018-12-01T16:01:01.251Z,16.50
2018-12-01T16:03:31.415Z,18.83
2018-12-01T16:06:01.530Z,16.90
2018-12-01T16:08:31.575Z,18.30
2018-12-01T16:11:01.604Z,19.93
2018-12-01T16:13:31.671Z,16.43
2018-12-01T16:16:03.855Z,17.27
2018-12-01T16:18:33.891Z,17.33
2018-12-01T16:21:03.999Z,18.33
2018-12-01T16:23:34.054Z,20.50
2018-12-01T16:26:04.095Z,19.40
2018-12-01T16:28:34.150Z,18.83
2018-12-01T16:31:04.200Z,20.97
2018-12-01T16:33:34.239Z,20.00
2018-12-01T16:36:04.575Z,21.07
2018-12-01T16:38:35.584Z,21.07
2018-12-01T16:41:16.914Z,23.97
2018-12-01T16:43:47.087Z,22.40
2018-12-01T16:46:17.183Z,21.53
2018-12-01T16:48:47.223Z,23.07
2018-12-01T16:51:17.264Z,26.83
2018-12-01T16:53:47.339Z,23.63
2018-12-01T16:56:17.540Z,23.40
2018-12-01T16:58:47.611Z,23.37
2018-12-01T17:01:18.607Z,21.60
2018-12-01T17:03:47.796Z,21.47
2018-12-01T17:06:19.004Z,24.20
2018-12-01T17:08:49.676Z,20.87
2018-12-01T17:11:19.754Z,21.43
2018-12-01T17:13:49.796Z,23.67
2018-12-01T17:16:19.890Z,22.67
2018-12-01T17:18:50.032Z,22.63
2018-12-01T17:21:20.070Z,23.50
2018-12-01T17:23:50.112Z,24.07
2018-12-01T17:26:20.256Z,28.33
2018-12-01T17:28:50.313Z,23.27
2018-12-01T17:31:20.406Z,26.63
2018-12-01T17:33:50.499Z,24.43
2018-12-01T17:36:20.543Z,23.47
2018-12-01T17:38:50.663Z,25.97
2018-12-01T17:41:22.864Z,23.80
2018-12-01T17:43:54.593Z,25.63
2018-12-01T17:46:24.708Z,26.43
2018-12-01T17:48:54.792Z,27.70
2018-12-01T17:51:24.847Z,27.73
2018-12-01T17:53:56.621Z,27.30
2018-12-01T17:56:26.658Z,23.63
2018-12-01T17:58:56.729Z,24.07
2018-12-01T18:01:26.752Z,25.30
2018-12-01T18:03:56.821Z,26.83
2018-12-01T18:06:26.879Z,23.50
2018-12-01T18:08:56.952Z,27.80
2018-12-01T18:11:29.548Z,25.70
2018-12-01T18:13:57.023Z,24.33
2018-12-01T18:16:27.047Z,25.33
2018-12-01T18:18:57.083Z,26.23
2018-12-01T18:21:27.144Z,24.80
2018-12-01T18:23:57.167Z,24.77
2018-12-01T18:26:27.211Z,22.73
2018-12-01T18:28:57.239Z,21.33
2018-12-01T18:31:28.118Z,25.10
2018-12-01T18:34:04.797Z,21.60
2018-12-01T18:36:34.879Z,22.93
2018-12-01T18:39:08.518Z,21.43
2018-12-01T18:41:38.575Z,20.40
2018-12-01T18:44:08.639Z,19.03
2018-12-01T18:46:38.675Z,19.47
2018-12-01T18:49:08.676Z,20.30
2018-12-01T18:51:38.775Z,20.20
2018-12-01T18:54:08.791Z,19.40
2018-12-01T18:56:38.872Z,20.57
2018-12-01T18:59:08.903Z,20.50
2018-12-01T19:01:38.952Z,18.10
2018-12-01T19:04:08.999Z,22.03
2018-12-01T19:06:39.128Z,19.67
2018-12-01T19:09:09.247Z,18.63
2018-12-01T19:11:39.252Z,19.80
2018-12-01T19:14:09.383Z,19.53
2018-12-01T19:16:39.448Z,22.00
2018-12-01T19:19:09.544Z,21.10
2018-12-01T19:21:39.826Z,20.53
2018-12-01T19:24:09.834Z,22.33
2018-12-01T19:26:39.911Z,22.00
2018-12-01T19:29:10.115Z,22.50
2018-12-01T19:31:40.152Z,21.93
2018-12-01T19:34:10.259Z,21.40
2018-12-01T19:36:40.307Z,22.37
2018-12-01T19:39:10.343Z,22.03
2018-12-01T19:41:40.457Z,21.57
2018-12-01T19:44:10.533Z,21.43
2018-12-01T19:46:40.603Z,21.30
2018-12-01T19:49:10.610Z,23.00
2018-12-01T19:51:40.767Z,22.37
2018-12-01T19:54:10.827Z,22.50
2018-12-01T19:56:40.876Z,30.80
2018-12-01T19:59:10.908Z,22.43
2018-12-01T20:01:40.963Z,26.53
2018-12-01T20:04:10.919Z,25.57
2018-12-01T20:06:40.979Z,24.90
2018-12-01T20:09:11.027Z,27.03
2018-12-01T20:11:41.115Z,22.23
2018-12-01T20:14:13.813Z,23.60
2018-12-01T20:16:46.495Z,25.60
2018-12-01T20:19:16.515Z,22.10
2018-12-01T20:21:46.563Z,22.07
2018-12-01T20:24:16.561Z,21.73
2018-12-01T20:26:46.595Z,22.93
2018-12-01T20:29:16.611Z,22.10
2018-12-01T20:31:46.655Z,22.87
2018-12-01T20:34:16.688Z,21.30
2018-12-01T20:37:03.811Z,21.07
2018-12-01T20:39:36.267Z,21.43
2018-12-01T20:42:06.497Z,23.60
2018-12-01T20:44:36.521Z,22.80
2018-12-01T20:47:06.663Z,22.60
2018-12-01T20:49:36.691Z,23.43
2018-12-01T20:52:06.984Z,22.03
2018-12-01T20:54:42.136Z,24.27
2018-12-01T20:57:19.780Z,23.83
2018-12-01T20:59:49.807Z,21.07
2018-12-01T21:02:19.827Z,22.87
2018-12-01T21:04:49.867Z,26.30
2018-12-01T21:07:19.899Z,24.43
2018-12-01T21:09:49.955Z,25.30
2018-12-01T21:12:19.960Z,23.93
2018-12-01T21:14:49.987Z,22.93
2018-12-01T21:17:20.151Z,23.83
2018-12-01T21:19:50.187Z,23.23
2018-12-01T21:22:20.225Z,24.90
2018-12-01T21:24:50.247Z,24.37
2018-12-01T21:27:20.303Z,24.13
2018-12-01T21:29:50.234Z,23.40
2018-12-01T21:32:20.271Z,22.23
2018-12-01T21:34:50.307Z,22.80
2018-12-01T21:37:20.341Z,22.97
2018-12-01T21:39:50.379Z,23.83
2018-12-01T21:42:20.420Z,26.17
2018-12-01T21:44:50.745Z,23.47
2018-12-01T21:47:20.791Z,25.30
2018-12-01T21:49:50.843Z,24.67
2018-12-01T21:52:20.882Z,23.87
2018-12-01T21:54:50.915Z,24.37
2018-12-01T21:57:20.923Z,25.20
2018-12-01T21:59:50.953Z,25.57
2018-12-01T22:02:20.995Z,25.63
2018-12-01T22:04:51.010Z,25.27
2018-12-01T22:07:21.011Z,25.23
2018-12-01T22:09:51.020Z,24.03
2018-12-01T22:12:21.179Z,22.33
2018-12-01T22:14:51.217Z,34.37
2018-12-01T22:17:21.268Z,23.43
2018-12-01T22:19:51.327Z,22.40
2018-12-01T22:22:21.395Z,22.03
2018-12-01T22:24:51.403Z,23.77
2018-12-01T22:27:21.454Z,23.67
2018-12-01T22:29:51.451Z,21.73
2018-12-01T22:32:21.480Z,19.83
2018-12-01T22:34:51.527Z,21.43
2018-12-01T22:37:21.584Z,20.77
2018-12-01T22:39:51.632Z,20.20
2018-12-01T22:42:21.647Z,20.17
2018-12-01T22:44:51.587Z,20.27
2018-12-01T22:47:21.569Z,21.13
2018-12-01T22:49:51.589Z,20.70
2018-12-01T22:52:21.621Z,18.83
2018-12-01T22:54:51.676Z,19.63
2018-12-01T22:57:21.699Z,17.83
2018-12-01T22:59:51.747Z,18.03
2018-12-01T23:02:21.830Z,19.00
2018-12-01T23:04:51.850Z,15.73
2018-12-01T23:07:21.911Z,17.53
2018-12-01T23:09:51.959Z,17.83
2018-12-01T23:12:21.995Z,17.80
2018-12-01T23:14:51.987Z,17.90
2018-12-01T23:17:21.941Z,17.83
2018-12-01T23:19:51.883Z,17.70
2018-12-01T23:22:21.897Z,19.90
2018-12-01T23:24:51.927Z,17.03
2018-12-01T23:27:21.935Z,16.67
2018-12-01T23:29:52.028Z,17.70
2018-12-01T23:32:22.039Z,17.57
2018-12-01T23:34:53.278Z,17.30
2018-12-01T23:37:22.143Z,17.23
2018-12-01T23:39:52.153Z,16.07
2018-12-01T23:42:22.197Z,17.07
2018-12-01T23:44:52.280Z,16.30
2018-12-01T23:47:22.313Z,17.03
2018-12-01T23:49:52.335Z,15.97
2018-12-01T23:52:22.372Z,15.90
2018-12-01T23:54:52.415Z,17.07
2018-12-01T23:57:22.452Z,17.50
2018-12-01T23:59:52.471Z,17.33
